Time;durP1;ratioP1;P1;durP2;ratioP2;P2;SDS_P1;SDS_P2;PMS_P1;PMS_P2;Temp;Humidity;BMP_temperature;BMP_pressure;BME280_temperature;BME280_humidity;BME280_pressure;Samples;Min_cycle;Max_cycle;Signal;HPM_P1;HPM_P2
2023/03/29 00:01:02;;;;;;;3.77;2.67;;;12.80;53.20;;;;;;5039967;28;20446;-46
2023/03/29 00:03:29;;;;;;;4.40;2.30;;;12.80;52.70;;;;;;5041109;28;20197;-44
2023/03/29 00:06:04;;;;;;;3.57;2.40;;;12.90;52.60;;;;;;5043346;28;20562;-44
2023/03/29 00:08:31;;;;;;;4.10;3.07;;;13.00;52.50;;;;;;5043140;28;20449;-47
2023/03/29 00:10:58;;;;;;;5.90;2.30;;;12.90;52.40;;;;;;5040743;28;20510;-45
2023/03/29 00:13:25;;;;;;;3.60;2.97;;;12.90;52.40;;;;;;5041955;28;20457;-45
2023/03/29 00:15:51;;;;;;;5.60;2.40;;;12.90;52.50;;;;;;5037641;28;20465;-44
2023/03/29 00:18:17;;;;;;;4.30;2.60;;;12.90;52.60;;;;;;5036656;28;20471;-45
2023/03/29 00:20:42;;;;;;;4.30;2.40;;;12.80;52.50;;;;;;5037208;28;20482;-45
2023/03/29 00:23:08;;;;;;;2.53;2.13;;;12.90;52.70;;;;;;5037049;28;20540;-44
2023/03/29 00:25:33;;;;;;;2.80;2.13;;;12.80;53.00;;;;;;5032980;28;20196;-45
2023/03/29 00:27:59;;;;;;;4.30;3.03;;;12.60;53.60;;;;;;5041671;28;20193;-43
2023/03/29 00:30:25;;;;;;;2.70;2.50;;;12.60;54.00;;;;;;5031939;28;20310;-44
2023/03/29 00:32:51;;;;;;;2.40;2.20;;;12.50;53.80;;;;;;5036093;28;20199;-44
2023/03/29 00:35:16;;;;;;;2.93;2.33;;;12.20;54.20;;;;;;5036373;28;20200;-44
2023/03/29 00:37:42;;;;;;;3.40;2.30;;;11.70;55.40;;;;;;5039166;28;20442;-44
2023/03/29 00:40:10;;;;;;;2.30;2.10;;;11.60;56.10;;;;;;5039868;28;20193;-45
2023/03/29 00:42:36;;;;;;;3.90;2.40;;;11.70;56.50;;;;;;5034065;28;20280;-45
2023/03/29 00:45:16;;;;;;;2.70;2.00;;;11.80;56.10;;;;;;5048416;28;20804;-44
2023/03/29 00:47:50;;;;;;;2.57;2.27;;;11.90;55.60;;;;;;5041495;28;20858;-45
2023/03/29 00:50:25;;;;;;;2.73;2.30;;;11.90;55.70;;;;;;5033002;28;20484;-44
2023/03/29 00:52:58;;;;;;;2.30;2.10;;;11.90;55.90;;;;;;5047590;28;20442;-46
2023/03/29 00:55:27;;;;;;;7.83;2.20;;;12.00;55.90;;;;;;5033275;28;20456;-46
2023/03/29 00:57:55;;;;;;;3.80;2.67;;;12.10;55.60;;;;;;5034268;28;20474;-50
2023/03/29 01:00:27;;;;;;;2.33;2.10;;;12.20;55.40;;;;;;5032242;28;20470;-45
2023/03/29 01:02:58;;;;;;;2.20;2.00;;;12.00;55.30;;;;;;5031313;28;20452;-46
2023/03/29 01:05:36;;;;;;;2.80;2.40;;;11.70;55.90;;;;;;5038180;28;20453;-46
2023/03/29 01:08:10;;;;;;;2.77;1.90;;;11.40;56.70;;;;;;5034104;28;20454;-46
2023/03/29 01:10:42;;;;;;;2.43;2.13;;;11.50;57.20;;;;;;5032221;28;20483;-47
2023/03/29 01:13:15;;;;;;;2.30;1.80;;;11.50;57.20;;;;;;5031811;28;20455;-46
2023/03/29 01:15:44;;;;;;;2.20;2.00;;;11.40;57.20;;;;;;5029148;28;20443;-46
2023/03/29 01:18:09;;;;;;;2.57;2.10;;;11.00;58.00;;;;;;5045851;28;21041;-47
2023/03/29 01:21:03;;;;;;;2.90;2.33;;;10.60;59.00;;;;;;5036997;28;20481;-47
2023/03/29 01:24:09;;;;;;;2.50;2.30;;;10.50;59.60;;;;;;5041639;28;20184;-45
2023/03/29 01:26:41;;;;;;;5.37;2.70;;;10.30;60.40;;;;;;5036050;28;20455;-46
2023/03/29 01:29:10;;;;;;;2.20;2.00;;;10.40;60.30;;;;;;5032688;28;20810;-46
2023/03/29 01:31:40;;;;;;;2.40;2.20;;;10.60;59.70;;;;;;5041348;28;20490;-46
2023/03/29 01:34:44;;;;;;;2.63;2.40;;;10.60;59.20;;;;;;5038191;28;20933;-46
2023/03/29 01:37:14;;;;;;;2.93;2.27;;;10.10;59.80;;;;;;5041871;28;20461;-46
2023/03/29 01:39:40;;;;;;;2.33;2.10;;;10.20;60.40;;;;;;5036917;28;20460;-46
2023/03/29 01:42:20;;;;;;;2.67;2.10;;;10.40;59.70;;;;;;5033922;28;20496;-46
2023/03/29 01:45:09;;;;;;;2.47;2.13;;;10.40;59.50;;;;;;5029445;28;20197;-46
2023/03/29 01:47:45;;;;;;;5.20;2.40;;;10.20;60.00;;;;;;5034943;28;20463;-46
2023/03/29 01:50:22;;;;;;;2.80;1.93;;;10.00;60.50;;;;;;5038879;28;20444;-46
2023/03/29 01:53:04;;;;;;;3.10;2.33;;;10.10;61.20;;;;;;5042612;28;20461;-48
2023/03/29 01:55:37;;;;;;;2.77;2.00;;;10.40;61.00;;;;;;5032746;28;20855;-46
2023/03/29 01:58:06;;;;;;;3.87;2.30;;;10.40;60.30;;;;;;5042453;28;20439;-46
2023/03/29 02:00:33;;;;;;;3.90;2.67;;;10.50;59.90;;;;;;5038042;28;20454;-46
2023/03/29 02:03:04;;;;;;;3.40;2.23;;;10.40;60.20;;;;;;5044349;28;20450;-46
2023/03/29 02:05:31;;;;;;;2.60;2.40;;;10.40;60.00;;;;;;5042458;28;20530;-46
2023/03/29 02:07:59;;;;;;;3.00;2.70;;;10.10;60.20;;;;;;5039547;28;22552;-45
2023/03/29 02:10:25;;;;;;;4.23;2.17;;;10.00;61.10;;;;;;5050475;28;21383;-46
2023/03/29 02:12:51;;;;;;;3.40;2.70;;;9.90;61.70;;;;;;5039360;28;20444;-47
2023/03/29 02:15:19;;;;;;;2.40;2.10;;;9.80;62.30;;;;;;5043406;28;20811;-46
2023/03/29 02:17:46;;;;;;;2.27;2.07;;;9.70;62.70;;;;;;5033026;28;20221;-45
2023/03/29 02:20:21;;;;;;;4.20;2.50;;;9.80;62.50;;;;;;5043015;28;20818;-47
2023/03/29 02:23:07;;;;;;;3.57;2.70;;;9.60;63.10;;;;;;5039270;28;20463;-46
2023/03/29 02:25:33;;;;;;;2.60;2.23;;;9.40;63.90;;;;;;5044556;28;20466;-46
2023/03/29 02:28:00;;;;;;;2.03;1.83;;;9.50;64.10;;;;;;5037785;28;20521;-46
2023/03/29 02:30:39;;;;;;;2.80;2.30;;;9.60;63.70;;;;;;5034689;28;20439;-46
2023/03/29 02:33:11;;;;;;;2.17;2.00;;;9.80;63.40;;;;;;5040816;28;20469;-46
2023/03/29 02:35:44;;;;;;;4.77;2.40;;;9.90;62.90;;;;;;5037876;28;20440;-47
2023/03/29 02:38:10;;;;;;;2.83;2.63;;;10.10;61.00;;;;;;5042609;28;20449;-46
2023/03/29 02:40:38;;;;;;;2.97;2.17;;;9.90;62.40;;;;;;5031464;28;20538;-46
2023/03/29 02:43:05;;;;;;;3.10;2.50;;;10.10;60.40;;;;;;5037198;28;20189;-47
2023/03/29 02:45:32;;;;;;;2.40;2.20;;;9.90;61.60;;;;;;5034888;28;20870;-46
2023/03/29 02:48:02;;;;;;;3.00;2.27;;;10.00;60.60;;;;;;5039163;28;20446;-46
2023/03/29 02:50:34;;;;;;;2.40;2.10;;;10.40;59.50;;;;;;5046078;28;20475;-46
2023/03/29 02:53:12;;;;;;;2.23;1.97;;;10.70;58.60;;;;;;5046753;28;20482;-47
2023/03/29 02:55:38;;;;;;;2.53;2.27;;;10.80;57.80;;;;;;5035668;28;21020;-48
2023/03/29 02:58:07;;;;;;;4.40;2.37;;;10.80;57.70;;;;;;5043347;28;20474;-46
2023/03/29 03:00:39;;;;;;;3.10;2.27;;;10.80;57.60;;;;;;5038347;28;20454;-48
2023/03/29 03:03:06;;;;;;;2.10;1.73;;;10.70;57.50;;;;;;5047728;28;20435;-48
2023/03/29 03:05:32;;;;;;;6.90;2.03;;;10.50;57.60;;;;;;5046300;28;21507;-48
2023/03/29 03:07:58;;;;;;;2.40;2.17;;;10.40;57.90;;;;;;5036794;28;21136;-48
2023/03/29 03:10:24;;;;;;;1.93;1.83;;;10.50;58.00;;;;;;5032515;28;20466;-46
2023/03/29 03:12:49;;;;;;;3.17;2.40;;;10.60;57.60;;;;;;5037181;28;20250;-46
2023/03/29 03:15:15;;;;;;;2.67;1.93;;;10.50;56.90;;;;;;5043045;28;20185;-46
2023/03/29 03:17:41;;;;;;;6.73;2.20;;;10.20;56.30;;;;;;5040909;28;20199;-47
2023/03/29 03:20:12;;;;;;;2.93;1.90;;;10.10;56.70;;;;;;5039492;28;20197;-46
2023/03/29 03:22:47;;;;;;;2.60;2.30;;;9.80;58.00;;;;;;5043521;28;20207;-46
2023/03/29 03:25:19;;;;;;;3.87;2.30;;;9.90;58.40;;;;;;5042406;28;20459;-46
2023/03/29 03:27:45;;;;;;;3.07;2.87;;;10.20;57.30;;;;;;5041072;28;20849;-46
2023/03/29 03:30:12;;;;;;;4.60;2.63;;;10.20;57.10;;;;;;5043685;28;20450;-46
2023/03/29 03:32:37;;;;;;;2.23;2.03;;;10.60;56.70;;;;;;5047795;28;20451;-46
2023/03/29 03:35:04;;;;;;;2.77;2.40;;;10.90;56.30;;;;;;5041426;28;20502;-50
2023/03/29 03:37:30;;;;;;;3.33;2.50;;;11.10;55.80;;;;;;5044818;28;20608;-48
2023/03/29 03:39:55;;;;;;;3.00;2.20;;;11.30;55.10;;;;;;5042766;28;20473;-46
2023/03/29 03:42:21;;;;;;;5.50;2.20;;;11.20;54.70;;;;;;5042154;28;20189;-46
2023/03/29 03:44:47;;;;;;;2.07;1.80;;;11.30;54.90;;;;;;5043737;28;20224;-46
2023/03/29 03:47:13;;;;;;;2.30;2.10;;;11.40;54.40;;;;;;5042601;28;20259;-46
2023/03/29 03:49:39;;;;;;;4.03;2.20;;;11.20;54.70;;;;;;5045334;28;20739;-46
2023/03/29 03:52:06;;;;;;;3.80;3.17;;;11.30;54.60;;;;;;5040622;28;20475;-43
2023/03/29 03:54:32;;;;;;;2.47;2.00;;;11.40;54.40;;;;;;5044328;28;20486;-46
2023/03/29 03:56:58;;;;;;;3.30;2.40;;;11.70;54.00;;;;;;5040559;28;20946;-48
2023/03/29 03:59:23;;;;;;;5.07;2.90;;;11.70;54.00;;;;;;5042327;28;20189;-46
2023/03/29 04:01:49;;;;;;;4.10;3.63;;;11.80;53.90;;;;;;5040201;28;20200;-45
2023/03/29 04:04:15;;;;;;;3.10;2.80;;;11.90;53.80;;;;;;5032350;28;20196;-46
2023/03/29 04:06:42;;;;;;;3.80;2.60;;;11.90;53.60;;;;;;5039170;28;20196;-45
2023/03/29 04:09:08;;;;;;;3.13;2.43;;;12.00;53.50;;;;;;5034168;28;20450;-46
2023/03/29 04:11:34;;;;;;;2.70;2.43;;;12.00;53.20;;;;;;5032782;28;20487;-47
2023/03/29 04:14:00;;;;;;;3.57;2.40;;;12.00;53.10;;;;;;5039400;28;20204;-48
2023/03/29 04:16:26;;;;;;;2.53;2.33;;;12.10;53.00;;;;;;5041611;28;20192;-46
2023/03/29 04:18:52;;;;;;;2.57;2.23;;;12.10;52.90;;;;;;5048476;28;20446;-48
2023/03/29 04:21:17;;;;;;;3.27;2.33;;;12.30;53.00;;;;;;5038474;28;20506;-46
2023/03/29 04:23:45;;;;;;;2.33;2.13;;;12.20;52.90;;;;;;5044443;28;20652;-46
2023/03/29 04:26:12;;;;;;;3.50;2.87;;;12.20;53.00;;;;;;5036331;28;20305;-43
2023/03/29 04:28:38;;;;;;;3.13;2.83;;;12.20;53.00;;;;;;5040791;28;20451;-45
2023/03/29 04:31:04;;;;;;;3.43;3.10;;;12.40;53.00;;;;;;5046929;28;20874;-44
2023/03/29 04:33:30;;;;;;;3.13;2.60;;;12.40;52.90;;;;;;5051131;28;20533;-44
2023/03/29 04:35:56;;;;;;;4.60;3.00;;;12.50;52.70;;;;;;5035495;28;20606;-44
2023/03/29 04:38:21;;;;;;;2.53;2.33;;;12.60;52.70;;;;;;5039228;28;22313;-44
2023/03/29 04:40:49;;;;;;;2.40;2.13;;;12.60;52.70;;;;;;5043351;28;20561;-44
2023/03/29 04:43:14;;;;;;;3.40;2.30;;;12.60;52.60;;;;;;5039399;28;20200;-45
2023/03/29 04:45:40;;;;;;;2.67;2.20;;;12.70;52.40;;;;;;5039672;28;20847;-45
2023/03/29 04:48:06;;;;;;;2.33;2.10;;;12.60;51.80;;;;;;5035652;28;20243;-44
2023/03/29 04:50:32;;;;;;;2.37;2.13;;;12.60;51.70;;;;;;5034883;28;20217;-45
2023/03/29 04:52:59;;;;;;;2.20;2.00;;;12.60;51.60;;;;;;5040140;28;20510;-44
2023/03/29 04:55:25;;;;;;;2.50;2.30;;;12.70;51.50;;;;;;5040203;28;20211;-44
2023/03/29 04:57:52;;;;;;;3.70;2.67;;;12.60;50.90;;;;;;5041720;28;20514;-44
2023/03/29 05:00:19;;;;;;;3.60;2.77;;;12.20;51.70;;;;;;5048398;28;20443;-44
2023/03/29 05:02:45;;;;;;;4.40;2.60;;;12.20;52.60;;;;;;5027684;28;20444;-45
2023/03/29 05:05:11;;;;;;;3.40;2.47;;;12.30;52.40;;;;;;5033403;28;20818;-45
2023/03/29 05:07:37;;;;;;;2.70;2.33;;;12.50;52.10;;;;;;5030082;28;22259;-44
2023/03/29 05:10:04;;;;;;;2.20;2.00;;;12.70;51.90;;;;;;5033256;28;20435;-45
2023/03/29 05:12:29;;;;;;;2.63;2.43;;;12.70;51.30;;;;;;5045565;28;20526;-45
2023/03/29 05:14:55;;;;;;;3.90;1.47;;;12.80;51.00;;;;;;5032586;28;20439;-44
2023/03/29 05:17:21;;;;;;;5.00;2.10;;;12.50;49.60;;;;;;5035211;28;20196;-44
2023/03/29 05:19:46;;;;;;;1.80;1.40;;;12.70;50.20;;;;;;5034055;28;20964;-44
2023/03/29 05:22:13;;;;;;;2.67;1.57;;;13.00;51.10;;;;;;5034850;28;20633;-44
2023/03/29 05:24:38;;;;;;;1.87;1.67;;;13.40;50.70;;;;;;5033013;28;20243;-47
2023/03/29 05:27:04;;;;;;;3.80;1.83;;;13.70;49.70;;;;;;5036292;28;20446;-44
2023/03/29 05:29:31;;;;;;;3.87;2.20;;;14.00;48.70;;;;;;5035974;28;20243;-44
2023/03/29 05:31:58;;;;;;;2.00;1.67;;;14.10;49.50;;;;;;5042568;28;20260;-44
2023/03/29 05:34:25;;;;;;;2.30;1.83;;;14.30;48.70;;;;;;5046658;28;20454;-44
2023/03/29 05:36:51;;;;;;;2.03;1.43;;;14.30;47.50;;;;;;5042460;28;20539;-44
2023/03/29 05:39:17;;;;;;;2.73;1.70;;;14.30;47.00;;;;;;5043192;28;20522;-44
2023/03/29 05:41:42;;;;;;;1.97;1.73;;;14.40;47.50;;;;;;5046689;28;20242;-44
2023/03/29 05:44:08;;;;;;;2.40;1.77;;;14.50;47.30;;;;;;5047930;28;20231;-44
2023/03/29 05:46:34;;;;;;;2.17;1.97;;;14.60;46.70;;;;;;5046688;28;20188;-45
2023/03/29 05:49:01;;;;;;;2.40;1.80;;;14.60;46.20;;;;;;5035390;28;20428;-45
2023/03/29 05:51:26;;;;;;;3.00;2.27;;;14.70;46.00;;;;;;5051811;28;20522;-46
2023/03/29 05:53:52;;;;;;;2.13;1.93;;;14.80;46.10;;;;;;5049646;28;20517;-45
2023/03/29 05:56:18;;;;;;;2.40;1.67;;;14.80;46.10;;;;;;5048171;28;20254;-47
2023/03/29 05:58:48;;;;;;;1.50;1.40;;;14.90;46.10;;;;;;5045272;28;20197;-47
2023/03/29 06:01:16;;;;;;;4.60;1.83;;;14.90;45.50;;;;;;5052142;28;20238;-48
2023/03/29 06:03:44;;;;;;;1.40;1.30;;;15.00;45.60;;;;;;5052479;28;20537;-48
2023/03/29 06:06:10;;;;;;;6.23;2.23;;;15.10;45.50;;;;;;5047987;28;20517;-48
2023/03/29 06:08:36;;;;;;;4.83;1.67;;;15.10;44.90;;;;;;5034599;28;20440;-49
2023/03/29 06:11:05;;;;;;;2.20;2.00;;;15.20;45.00;;;;;;5042030;28;20582;-47
2023/03/29 06:13:32;;;;;;;2.60;2.40;;;15.30;45.10;;;;;;5046411;28;20536;-48
2023/03/29 06:15:58;;;;;;;3.93;2.60;;;15.30;45.00;;;;;;5043819;28;20545;-45
2023/03/29 06:18:24;;;;;;;3.80;2.93;;;15.40;45.00;;;;;;5039706;28;20443;-45
2023/03/29 06:20:51;;;;;;;3.03;2.60;;;15.30;45.20;;;;;;5040774;28;20451;-47
2023/03/29 06:23:18;;;;;;;2.33;1.90;;;15.20;45.30;;;;;;5040701;28;20264;-48
2023/03/29 06:25:45;;;;;;;3.10;2.37;;;15.10;44.50;;;;;;5043937;28;20439;-46
2023/03/29 06:28:12;;;;;;;5.70;2.70;;;15.00;44.50;;;;;;5048095;28;20435;-45
2023/03/29 06:30:38;;;;;;;3.50;2.00;;;15.10;44.80;;;;;;5043434;28;20621;-44
2023/03/29 06:33:05;;;;;;;2.70;2.20;;;14.70;43.70;;;;;;5050025;28;20485;-44
2023/03/29 06:35:33;;;;;;;2.93;2.30;;;14.70;44.50;;;;;;5040096;28;20819;-46
2023/03/29 06:37:59;;;;;;;8.03;4.50;;;14.90;44.70;;;;;;5052813;28;20853;-45
2023/03/29 06:40:26;;;;;;;4.20;3.50;;;15.10;44.70;;;;;;5046462;28;20439;-44
2023/03/29 06:42:56;;;;;;;4.13;3.40;;;15.20;44.90;;;;;;5041909;28;20201;-48
2023/03/29 06:45:23;;;;;;;3.10;2.73;;;15.30;44.60;;;;;;5043261;28;20489;-44
2023/03/29 06:47:49;;;;;;;5.10;2.63;;;15.50;44.30;;;;;;5041706;28;20432;-47
2023/03/29 06:50:16;;;;;;;5.13;2.47;;;15.50;43.90;;;;;;5052541;28;20466;-48
2023/03/29 06:52:42;;;;;;;2.37;1.87;;;15.50;43.80;;;;;;5052371;28;20454;-46
2023/03/29 06:55:10;;;;;;;2.40;2.20;;;15.50;43.90;;;;;;5048254;28;20451;-47
2023/03/29 06:57:36;;;;;;;5.23;2.20;;;15.60;44.40;;;;;;5041515;28;20484;-45
2023/03/29 07:00:09;;;;;;;3.83;2.00;;;15.70;45.10;;;;;;5051650;28;20447;-47
2023/03/29 07:02:35;;;;;;;1.83;1.70;;;15.70;45.60;;;;;;5053097;28;20858;-47
2023/03/29 07:05:00;;;;;;;2.67;1.90;;;15.80;45.80;;;;;;5049268;28;20475;-48
2023/03/29 07:07:32;;;;;;;2.67;1.90;;;15.80;45.90;;;;;;5046729;28;20807;-49
2023/03/29 07:10:00;;;;;;;2.67;2.00;;;15.90;45.90;;;;;;5049658;28;20204;-44
2023/03/29 07:12:26;;;;;;;8.73;2.80;;;15.90;45.80;;;;;;5049535;28;20490;-45
2023/03/29 07:14:52;;;;;;;3.03;2.73;;;15.80;45.70;;;;;;5043153;28;20420;-47
2023/03/29 07:17:18;;;;;;;3.97;3.43;;;15.80;46.20;;;;;;5050709;28;20216;-48
2023/03/29 07:19:43;;;;;;;5.03;3.40;;;15.40;47.00;;;;;;5048026;28;20471;-45
2023/03/29 07:22:09;;;;;;;6.37;4.47;;;15.10;48.20;;;;;;5048154;28;20205;-45
2023/03/29 07:24:35;;;;;;;7.23;4.20;;;15.20;48.10;;;;;;5041636;28;20559;-44
2023/03/29 07:27:01;;;;;;;4.53;3.33;;;15.40;47.70;;;;;;5041446;28;20446;-44
2023/03/29 07:29:27;;;;;;;4.60;3.07;;;15.60;47.40;;;;;;5047099;28;20248;-44
2023/03/29 07:31:53;;;;;;;4.40;2.90;;;15.70;47.10;;;;;;5039994;28;20488;-45
2023/03/29 07:34:18;;;;;;;3.43;3.13;;;15.70;47.10;;;;;;5033708;28;21000;-44
2023/03/29 07:36:44;;;;;;;6.53;2.77;;;15.80;47.50;;;;;;5033256;28;20195;-44
2023/03/29 07:39:11;;;;;;;5.07;3.13;;;15.80;47.40;;;;;;5038075;28;20208;-44
2023/03/29 07:41:37;;;;;;;6.70;4.37;;;15.90;47.20;;;;;;5044979;28;20196;-44
2023/03/29 07:44:07;;;;;;;7.53;2.80;;;16.00;46.90;;;;;;5045587;28;20448;-44
2023/03/29 07:46:35;;;;;;;5.67;2.83;;;16.00;46.40;;;;;;5038589;28;20558;-44
2023/03/29 07:49:01;;;;;;;4.43;2.90;;;16.00;46.00;;;;;;5043375;28;20443;-45
2023/03/29 07:51:27;;;;;;;3.23;2.93;;;16.00;46.70;;;;;;5036790;28;20487;-46
2023/03/29 07:53:52;;;;;;;3.20;2.50;;;16.00;47.30;;;;;;5048194;28;21172;-45
2023/03/29 07:56:18;;;;;;;4.03;2.43;;;16.10;47.30;;;;;;5047075;28;20192;-45
2023/03/29 07:58:45;;;;;;;2.77;2.47;;;16.20;47.30;;;;;;5044853;28;20197;-44
2023/03/29 08:01:14;;;;;;;6.27;3.27;;;16.30;47.10;;;;;;5033831;28;20201;-46
2023/03/29 08:03:40;;;;;;;2.50;2.30;;;16.40;46.80;;;;;;5034919;28;20969;-44
2023/03/29 08:06:07;;;;;;;3.40;2.83;;;16.50;46.40;;;;;;5042064;28;20451;-46
2023/03/29 08:08:32;;;;;;;3.00;2.70;;;16.60;46.00;;;;;;5036817;28;21119;-45
2023/03/29 08:10:58;;;;;;;5.13;3.20;;;16.70;45.80;;;;;;5037814;28;20605;-45
2023/03/29 08:13:23;;;;;;;4.97;3.40;;;16.70;45.30;;;;;;5040079;28;20204;-47
2023/03/29 08:15:49;;;;;;;5.27;3.53;;;16.80;45.30;;;;;;5038498;28;20198;-45
2023/03/29 08:18:15;;;;;;;4.00;3.20;;;16.70;45.10;;;;;;5039744;28;20193;-47
2023/03/29 08:20:41;;;;;;;4.53;3.20;;;16.70;45.60;;;;;;5046168;28;20675;-46
2023/03/29 08:23:07;;;;;;;5.13;3.80;;;16.40;46.00;;;;;;5042328;28;20337;-48
2023/03/29 08:25:34;;;;;;;3.67;3.07;;;16.40;46.60;;;;;;5040486;28;20543;-45
2023/03/29 08:27:59;;;;;;;5.13;2.57;;;16.50;46.20;;;;;;5037335;28;20204;-47
2023/03/29 08:30:25;;;;;;;3.33;3.03;;;16.60;45.90;;;;;;5037567;28;20447;-47
2023/03/29 08:32:52;;;;;;;5.87;2.77;;;16.70;45.60;;;;;;5048485;28;20563;-45
2023/03/29 08:35:18;;;;;;;3.80;2.90;;;16.70;45.50;;;;;;5046086;28;20459;-46
2023/03/29 08:37:44;;;;;;;4.20;3.00;;;16.70;45.30;;;;;;5046796;28;20439;-45
2023/03/29 08:40:21;;;;;;;3.73;2.50;;;16.70;44.50;;;;;;5039717;28;20447;-46
2023/03/29 08:42:58;;;;;;;4.20;2.83;;;16.70;44.40;;;;;;5044085;28;20427;-46
2023/03/29 08:45:40;;;;;;;5.63;2.90;;;16.60;44.70;;;;;;5046602;28;20546;-45
2023/03/29 08:48:06;;;;;;;2.80;2.50;;;16.70;44.80;;;;;;5042518;28;20830;-45
2023/03/29 08:50:37;;;;;;;3.33;2.90;;;16.90;44.50;;;;;;5039196;28;20447;-46
2023/03/29 08:53:18;;;;;;;2.73;2.33;;;17.10;44.50;;;;;;5034614;28;20236;-48
2023/03/29 08:55:46;;;;;;;4.50;2.23;;;17.20;44.20;;;;;;5043908;28;20435;-47
2023/03/29 08:58:16;;;;;;;3.20;1.87;;;17.20;43.10;;;;;;5039659;28;20518;-46
2023/03/29 09:00:45;;;;;;;7.10;2.40;;;17.10;42.80;;;;;;5039868;28;20475;-46
2023/03/29 09:03:21;;;;;;;2.87;2.20;;;17.10;43.40;;;;;;5041955;28;20443;-48
2023/03/29 09:05:58;;;;;;;3.60;2.27;;;17.10;42.80;;;;;;5041989;28;20438;-45
2023/03/29 09:08:24;;;;;;;4.57;2.53;;;17.20;42.90;;;;;;5041005;28;21001;-45
2023/03/29 09:11:18;;;;;;;3.03;2.80;;;17.10;43.10;;;;;;5044435;28;20482;-47
2023/03/29 09:14:12;;;;;;;3.17;2.37;;;17.10;43.50;;;;;;5041292;28;20452;-44
2023/03/29 09:17:04;;;;;;;2.87;2.03;;;17.10;43.10;;;;;;5039803;28;20519;-45
2023/03/29 09:20:05;;;;;;;4.10;2.30;;;17.10;42.40;;;;;;5035195;28;20460;-45
2023/03/29 09:22:51;;;;;;;3.70;2.20;;;17.20;42.40;;;;;;5029088;28;20448;-45
2023/03/29 09:25:54;;;;;;;3.20;2.50;;;17.20;41.90;;;;;;5046115;28;20497;-47
2023/03/29 09:28:58;;;;;;;1.93;1.63;;;17.20;41.50;;;;;;5042994;28;20637;-46
2023/03/29 09:31:31;;;;;;;5.53;2.00;;;17.30;41.60;;;;;;5040382;28;20569;-45
2023/03/29 09:34:00;;;;;;;1.80;1.70;;;17.50;41.80;;;;;;5042257;28;20454;-46
2023/03/29 09:37:20;;;;;;;2.40;1.83;;;17.60;41.60;;;;;;5034227;28;20468;-47
2023/03/29 09:39:48;;;;;;;3.00;1.60;;;17.70;41.30;;;;;;5016362;28;20530;-47
2023/03/29 09:42:16;;;;;;;2.27;1.47;;;17.80;40.90;;;;;;5042487;28;20466;-47
2023/03/29 09:44:56;;;;;;;4.40;1.87;;;17.90;40.90;;;;;;5036963;28;20448;-47
2023/03/29 09:47:35;;;;;;;1.90;1.70;;;17.80;39.70;;;;;;5043365;28;20476;-46
2023/03/29 09:50:34;;;;;;;1.77;1.40;;;17.90;39.80;;;;;;5040002;28;20451;-46
2023/03/29 09:53:00;;;;;;;5.43;2.10;;;17.90;39.00;;;;;;5048596;28;20487;-46
2023/03/29 09:55:28;;;;;;;4.50;2.07;;;17.90;39.20;;;;;;5039322;28;20570;-47
2023/03/29 09:58:06;;;;;;;2.87;1.70;;;17.90;38.90;;;;;;5038622;28;20446;-48
2023/03/29 10:00:31;;;;;;;2.50;1.57;;;17.70;38.40;;;;;;5044683;28;20447;-46
2023/03/29 10:02:58;;;;;;;4.13;1.57;;;18.00;38.80;;;;;;5044351;28;20445;-46
2023/03/29 10:05:26;;;;;;;3.40;1.80;;;18.00;38.30;;;;;;5037926;28;20198;-45
2023/03/29 10:07:56;;;;;;;3.10;1.90;;;18.20;38.20;;;;;;5034197;28;20529;-48
2023/03/29 10:10:24;;;;;;;1.30;1.20;;;18.40;37.80;;;;;;5042697;28;20439;-44
2023/03/29 10:12:52;;;;;;;2.20;1.87;;;18.00;37.40;;;;;;5041109;28;20497;-46
2023/03/29 10:15:20;;;;;;;2.83;2.10;;;18.10;38.10;;;;;;5047723;28;20451;-47
2023/03/29 10:17:46;;;;;;;2.90;1.70;;;18.00;38.20;;;;;;5049221;28;20446;-45
2023/03/29 10:20:17;;;;;;;4.80;1.70;;;18.10;38.30;;;;;;5039090;28;20470;-46
2023/03/29 10:22:55;;;;;;;2.47;2.07;;;18.30;38.30;;;;;;5050463;28;20476;-47
2023/03/29 10:25:35;;;;;;;1.97;1.70;;;18.40;38.30;;;;;;5044415;28;20439;-45
2023/03/29 10:28:10;;;;;;;2.60;1.67;;;18.30;38.20;;;;;;5048983;28;20446;-47
2023/03/29 10:30:37;;;;;;;2.27;1.77;;;18.60;38.60;;;;;;5041417;28;20461;-45
2023/03/29 10:33:06;;;;;;;8.93;2.27;;;18.60;37.80;;;;;;5042658;28;20817;-46
2023/03/29 10:35:39;;;;;;;1.70;1.60;;;18.60;37.80;;;;;;5040191;28;20448;-48
2023/03/29 10:38:10;;;;;;;7.63;1.73;;;18.60;37.70;;;;;;5046653;28;20862;-45
2023/03/29 10:40:43;;;;;;;2.80;1.73;;;18.70;37.60;;;;;;5040041;28;20436;-44
2023/03/29 10:43:18;;;;;;;1.97;1.77;;;18.90;37.90;;;;;;5033383;28;20473;-49
2023/03/29 10:45:48;;;;;;;2.00;1.80;;;18.90;38.00;;;;;;5043895;28;20568;-45
2023/03/29 10:48:15;;;;;;;1.97;1.70;;;19.00;37.50;;;;;;5038881;28;20438;-44
2023/03/29 10:50:41;;;;;;;3.47;2.20;;;19.10;37.10;;;;;;5042557;28;20878;-48
2023/03/29 10:53:26;;;;;;;1.90;1.70;;;19.10;37.40;;;;;;5034035;28;20499;-48
2023/03/29 10:56:01;;;;;;;1.70;1.60;;;19.10;38.00;;;;;;5038277;28;20450;-46
2023/03/29 10:58:34;;;;;;;3.43;1.80;;;19.20;38.00;;;;;;5034994;28;21027;-47
2023/03/29 11:01:01;;;;;;;2.70;2.30;;;19.10;37.60;;;;;;5035183;28;20447;-47
2023/03/29 11:03:42;;;;;;;1.80;1.70;;;19.00;38.20;;;;;;5034123;28;20961;-47
2023/03/29 11:06:14;;;;;;;3.03;1.87;;;19.20;37.60;;;;;;5050957;28;20471;-47
2023/03/29 11:08:57;;;;;;;2.63;2.40;;;19.40;37.60;;;;;;5042460;28;20452;-49
2023/03/29 11:11:25;;;;;;;3.17;2.03;;;19.60;37.40;;;;;;5045068;28;20490;-48
2023/03/29 11:14:14;;;;;;;4.63;2.00;;;19.70;37.00;;;;;;5047814;28;20450;-47
2023/03/29 11:17:11;;;;;;;2.10;1.90;;;19.80;37.10;;;;;;5039584;28;20440;-49
2023/03/29 11:20:15;;;;;;;1.93;1.40;;;19.80;37.00;;;;;;5031907;28;20877;-45
2023/03/29 11:23:28;;;;;;;2.37;2.17;;;19.90;37.60;;;;;;5041327;28;20473;-46
2023/03/29 11:26:27;;;;;;;1.67;1.50;;;20.10;36.70;;;;;;4984429;28;21281;-46
2023/03/29 11:29:06;;;;;;;3.87;1.80;;;20.40;36.60;;;;;;5046874;28;20790;-46
2023/03/29 11:31:31;;;;;;;3.47;1.77;;;20.20;36.40;;;;;;5051057;28;20504;-46
2023/03/29 11:34:13;;;;;;;3.97;2.20;;;20.20;36.50;;;;;;5049220;28;21191;-49
2023/03/29 11:36:56;;;;;;;2.10;1.67;;;20.50;35.80;;;;;;5038857;28;20189;-47
2023/03/29 11:39:55;;;;;;;3.40;2.03;;;20.70;35.20;;;;;;5050638;28;20814;-46
2023/03/29 11:42:32;;;;;;;2.47;2.07;;;20.90;35.20;;;;;;5034461;28;20961;-45
2023/03/29 11:45:01;;;;;;;3.23;1.87;;;21.00;35.50;;;;;;5036472;28;21103;-47
2023/03/29 11:47:31;;;;;;;2.53;1.80;;;21.10;35.90;;;;;;5040945;28;20440;-48
2023/03/29 11:50:18;;;;;;;3.10;2.23;;;21.30;35.70;;;;;;5048385;28;20514;-45
2023/03/29 11:52:57;;;;;;;2.83;2.23;;;21.30;35.50;;;;;;5045555;28;20592;-49
2023/03/29 11:55:27;;;;;;;1.77;1.67;;;21.50;35.90;;;;;;5044929;28;21102;-45
2023/03/29 11:57:57;;;;;;;2.23;1.80;;;21.30;35.60;;;;;;5047073;28;20798;-46
2023/03/29 12:00:37;;;;;;;2.13;2.00;;;21.10;36.10;;;;;;5035628;28;20454;-45
2023/03/29 12:03:16;;;;;;;3.57;2.03;;;21.10;36.30;;;;;;5040439;28;20804;-49
2023/03/29 12:05:53;;;;;;;3.30;2.30;;;21.20;36.10;;;;;;5041926;28;20477;-50
2023/03/29 12:08:28;;;;;;;2.93;1.80;;;21.30;35.80;;;;;;5043280;28;20443;-46
2023/03/29 12:11:19;;;;;;;5.27;3.43;;;21.40;34.80;;;;;;5039323;28;20494;-49
2023/03/29 12:13:51;;;;;;;2.53;2.33;;;20.90;36.30;;;;;;5043367;28;20478;-48
2023/03/29 12:16:31;;;;;;;3.63;2.87;;;20.80;37.10;;;;;;5042832;28;20445;-47
2023/03/29 12:19:03;;;;;;;3.07;2.70;;;21.00;36.70;;;;;;5037369;28;20453;-50
2023/03/29 12:21:31;;;;;;;3.57;2.60;;;21.20;36.40;;;;;;5043490;28;20439;-47
2023/03/29 12:24:01;;;;;;;2.10;1.90;;;21.40;36.40;;;;;;5045208;28;20474;-52
2023/03/29 12:26:33;;;;;;;1.97;1.67;;;21.50;35.70;;;;;;5038056;28;20442;-45
2023/03/29 12:29:25;;;;;;;2.97;1.80;;;21.60;35.30;;;;;;5045836;28;20533;-44
2023/03/29 12:31:54;;;;;;;4.63;1.80;;;21.80;35.40;;;;;;5048182;28;20512;-49
2023/03/29 12:34:46;;;;;;;3.50;1.80;;;21.90;35.40;;;;;;5037122;28;20551;-47
2023/03/29 12:37:26;;;;;;;2.60;1.80;;;22.00;35.40;;;;;;5039506;28;20533;-44
2023/03/29 12:40:08;;;;;;;2.13;1.70;;;22.00;34.00;;;;;;5038543;28;20442;-46
2023/03/29 12:42:46;;;;;;;2.57;1.90;;;21.70;34.00;;;;;;5037145;28;20449;-46
2023/03/29 12:45:36;;;;;;;2.17;1.63;;;21.80;34.10;;;;;;5039583;28;20571;-46
2023/03/29 12:48:02;;;;;;;2.57;1.83;;;22.00;34.20;;;;;;5047704;28;20474;-49
2023/03/29 12:50:41;;;;;;;2.60;1.63;;;22.20;34.00;;;;;;5040857;28;20793;-47
2023/03/29 12:53:37;;;;;;;2.77;1.97;;;22.40;34.00;;;;;;5036993;28;20876;-47
2023/03/29 12:56:02;;;;;;;1.93;1.77;;;22.60;34.20;;;;;;5036245;28;20446;-45
2023/03/29 12:59:06;;;;;;;2.10;1.50;;;22.50;34.70;;;;;;5042428;28;20452;-45
2023/03/29 13:01:37;;;;;;;5.60;1.93;;;22.50;34.80;;;;;;5036229;28;20254;-46
2023/03/29 13:04:36;;;;;;;2.63;2.03;;;22.60;34.80;;;;;;5037671;28;20514;-50
2023/03/29 13:07:04;;;;;;;2.47;1.67;;;22.80;34.30;;;;;;5002499;28;20546;-47
2023/03/29 13:09:47;;;;;;;2.33;1.83;;;22.80;34.60;;;;;;5038050;28;20554;-47